createdAt,value
2023-10-14T00:01:54.270Z,2.22
2023-10-14T00:04:27.782Z,2.30
2023-10-14T00:06:59.168Z,2.60
2023-10-14T00:09:27.482Z,2.13
2023-10-14T00:11:57.203Z,2.22
2023-10-14T00:14:25.088Z,2.72
2023-10-14T00:16:53.046Z,2.20
2023-10-14T00:19:22.224Z,2.58
2023-10-14T00:21:51.369Z,1.90
2023-10-14T00:24:28.747Z,1.80
2023-10-14T00:26:56.903Z,2.42
2023-10-14T00:29:24.842Z,2.05
2023-10-14T00:31:53.448Z,2.15
2023-10-14T00:34:27.141Z,2.17
2023-10-14T00:36:55.070Z,2.30
2023-10-14T00:39:28.453Z,2.53
2023-10-14T00:42:00.427Z,2.53
2023-10-14T00:44:29.254Z,2.27
2023-10-14T00:46:57.167Z,2.80
2023-10-14T00:49:37.162Z,2.25
2023-10-14T00:52:12.376Z,2.63
2023-10-14T00:54:48.164Z,2.65
2023-10-14T00:57:18.976Z,2.42
2023-10-14T00:59:51.495Z,2.20
2023-10-14T01:02:32.474Z,2.60
2023-10-14T01:05:09.264Z,2.60
2023-10-14T01:07:40.482Z,2.60
2023-10-14T01:10:13.771Z,3.38
2023-10-14T01:12:46.732Z,3.75
2023-10-14T01:17:50.617Z,3.72
2023-10-14T01:20:18.191Z,3.65
2023-10-14T01:22:52.774Z,3.30
2023-10-14T01:25:20.899Z,3.20
2023-10-14T01:27:48.536Z,3.85
2023-10-14T01:30:21.046Z,2.70
2023-10-14T01:32:49.141Z,3.40
2023-10-14T01:35:23.719Z,3.50
2023-10-14T01:38:01.546Z,2.65
2023-10-14T01:40:36.120Z,2.65
2023-10-14T01:43:08.085Z,2.58
2023-10-14T01:45:41.394Z,3.05
2023-10-14T01:48:12.411Z,2.45
2023-10-14T01:51:01.763Z,2.40
2023-10-14T01:53:33.714Z,2.92
2023-10-14T01:56:03.110Z,2.83
2023-10-14T01:58:34.981Z,2.75
2023-10-14T02:01:10.715Z,2.75
2023-10-14T02:03:58.915Z,2.30
2023-10-14T02:06:28.253Z,2.42
2023-10-14T02:08:57.032Z,2.72
2023-10-14T02:11:25.493Z,2.60
2023-10-14T02:13:55.415Z,2.65
2023-10-14T02:16:26.902Z,2.58
2023-10-14T02:19:13.668Z,2.60
2023-10-14T02:22:01.518Z,2.20
2023-10-14T02:24:29.489Z,2.55
2023-10-14T02:27:08.115Z,2.65
2023-10-14T02:29:35.637Z,2.35
2023-10-14T02:32:03.374Z,2.40
2023-10-14T02:34:32.215Z,2.50
2023-10-14T02:37:02.962Z,3.00
2023-10-14T02:39:30.793Z,2.72
2023-10-14T02:42:17.093Z,2.53
2023-10-14T02:44:49.417Z,2.58
2023-10-14T02:47:19.205Z,2.60
2023-10-14T02:49:55.106Z,2.70
2023-10-14T02:52:30.974Z,3.20
2023-10-14T02:55:18.238Z,2.80
2023-10-14T02:57:49.829Z,3.65
2023-10-14T03:00:25.324Z,3.58
2023-10-14T03:02:56.693Z,2.63
2023-10-14T03:05:43.084Z,2.53
2023-10-14T03:08:11.785Z,3.00
2023-10-14T03:10:46.528Z,3.20
2023-10-14T03:13:14.637Z,3.05
2023-10-14T03:15:49.150Z,2.90
2023-10-14T03:18:19.703Z,2.90
2023-10-14T03:20:53.696Z,3.03
2023-10-14T03:23:24.266Z,2.78
2023-10-14T03:25:52.866Z,2.85
2023-10-14T03:28:22.139Z,2.17
2023-10-14T03:30:57.593Z,2.58
2023-10-14T03:33:31.283Z,2.95
2023-10-14T03:36:06.412Z,2.67
2023-10-14T03:38:39.235Z,2.25
2023-10-14T03:41:14.437Z,2.60
2023-10-14T03:43:57.507Z,3.00
2023-10-14T03:46:36.567Z,2.90
2023-10-14T03:49:13.337Z,2.85
2023-10-14T03:51:41.864Z,2.40
2023-10-14T03:54:10.633Z,2.47
2023-10-14T03:56:39.868Z,2.50
2023-10-14T03:59:07.619Z,2.30
2023-10-14T04:01:45.056Z,2.63
2023-10-14T04:04:18.868Z,2.30
2023-10-14T04:07:13.514Z,2.85
2023-10-14T04:09:46.421Z,3.40
2023-10-14T04:12:35.776Z,2.53
2023-10-14T04:15:13.428Z,2.40
2023-10-14T04:17:41.736Z,2.35
2023-10-14T04:20:09.836Z,2.20
2023-10-14T04:22:41.172Z,2.60
2023-10-14T04:25:28.490Z,2.17
2023-10-14T04:28:16.111Z,2.92
2023-10-14T04:30:44.093Z,2.78
2023-10-14T04:33:15.945Z,2.58
2023-10-14T04:35:59.530Z,2.95
2023-10-14T04:38:39.676Z,2.17
2023-10-14T04:41:25.352Z,2.45
2023-10-14T04:44:01.262Z,2.50
2023-10-14T04:46:36.129Z,2.97
2023-10-14T04:49:09.705Z,2.35
2023-10-14T04:51:47.375Z,2.22
2023-10-14T04:54:22.075Z,2.42
2023-10-14T04:56:50.050Z,2.40
2023-10-14T04:59:26.739Z,2.78
2023-10-14T05:01:57.389Z,2.70
2023-10-14T05:04:31.342Z,2.70
2023-10-14T05:07:05.755Z,2.47
2023-10-14T05:09:40.814Z,2.40
2023-10-14T05:12:09.609Z,2.80
2023-10-14T05:14:39.965Z,2.75
2023-10-14T05:17:16.263Z,2.80
2023-10-14T05:19:44.933Z,2.60
2023-10-14T05:22:20.892Z,2.90
2023-10-14T05:24:54.064Z,2.40
2023-10-14T05:27:22.753Z,2.28
2023-10-14T05:29:54.450Z,3.03
2023-10-14T05:32:32.568Z,2.47
2023-10-14T05:35:00.736Z,2.80
2023-10-14T05:37:28.292Z,3.00
2023-10-14T05:39:56.602Z,2.55
2023-10-14T05:42:26.013Z,2.70
2023-10-14T05:45:02.693Z,2.92
2023-10-14T05:47:33.821Z,3.15
2023-10-14T05:50:01.929Z,3.15
2023-10-14T05:52:32.780Z,2.53
2023-10-14T05:55:02.395Z,2.08
2023-10-14T05:57:34.032Z,2.33
2023-10-14T06:00:03.533Z,2.45
2023-10-14T06:02:32.347Z,3.67
2023-10-14T06:05:00.045Z,2.38
2023-10-14T06:07:27.875Z,2.50
2023-10-14T06:09:55.649Z,2.50
2023-10-14T06:12:24.271Z,2.85
2023-10-14T06:14:51.796Z,2.35
2023-10-14T06:17:19.395Z,3.20
2023-10-14T06:19:46.990Z,3.03
2023-10-14T06:22:15.310Z,3.78
2023-10-14T06:24:44.202Z,3.10
2023-10-14T06:27:23.146Z,2.88
2023-10-14T06:29:52.130Z,2.92
2023-10-14T06:32:21.913Z,2.53
2023-10-14T06:35:00.259Z,3.05
2023-10-14T06:37:28.759Z,2.50
2023-10-14T06:39:58.775Z,2.47
2023-10-14T06:42:28.645Z,2.85
2023-10-14T06:44:56.974Z,3.13
2023-10-14T06:47:24.671Z,2.92
2023-10-14T06:49:52.732Z,2.55
2023-10-14T06:52:20.584Z,1.98
2023-10-14T06:54:48.848Z,1.80
2023-10-14T06:57:17.667Z,3.58
2023-10-14T06:59:47.062Z,3.40
2023-10-14T07:02:14.999Z,3.08
2023-10-14T07:04:43.100Z,3.20
2023-10-14T07:07:13.126Z,2.50
2023-10-14T07:09:46.053Z,3.13
2023-10-14T07:12:17.158Z,3.40
2023-10-14T07:14:48.130Z,3.80
2023-10-14T07:17:24.197Z,3.38
2023-10-14T07:19:52.166Z,2.95
2023-10-14T07:22:23.106Z,3.25
2023-10-14T07:24:52.499Z,2.90
2023-10-14T07:27:22.191Z,2.75
2023-10-14T07:29:50.276Z,3.15
2023-10-14T07:32:21.130Z,2.80
2023-10-14T07:34:52.254Z,2.65
2023-10-14T07:37:21.617Z,3.60
2023-10-14T07:39:54.030Z,3.05
2023-10-14T07:42:23.390Z,3.22
2023-10-14T07:44:53.542Z,3.00
2023-10-14T07:47:22.801Z,2.67
2023-10-14T07:49:52.122Z,2.45
2023-10-14T07:52:22.412Z,2.72
2023-10-14T07:54:52.920Z,2.97
2023-10-14T07:57:21.171Z,3.33
2023-10-14T07:59:52.139Z,2.65
2023-10-14T08:02:20.165Z,2.22
2023-10-14T08:04:47.814Z,2.47
2023-10-14T08:07:15.880Z,3.47
2023-10-14T08:09:43.582Z,1.90
2023-10-14T08:12:11.345Z,2.63
2023-10-14T08:14:38.908Z,2.33
2023-10-14T08:17:13.146Z,2.67
2023-10-14T08:19:42.263Z,2.13
2023-10-14T08:22:11.268Z,2.28
2023-10-14T08:24:39.796Z,2.42
2023-10-14T08:27:09.192Z,3.25
2023-10-14T08:29:36.998Z,2.35
2023-10-14T08:32:05.055Z,2.53
2023-10-14T08:34:33.610Z,2.63
2023-10-14T08:37:04.327Z,3.50
2023-10-14T08:39:32.531Z,3.17
2023-10-14T08:42:00.368Z,3.00
2023-10-14T08:44:33.046Z,2.28
2023-10-14T08:47:03.814Z,2.95
2023-10-14T08:49:34.452Z,3.28
2023-10-14T08:52:06.157Z,2.75
2023-10-14T08:54:33.663Z,3.00
2023-10-14T08:57:01.984Z,3.10
2023-10-14T08:59:29.721Z,3.33
2023-10-14T09:01:59.047Z,3.28
2023-10-14T09:04:30.737Z,1.90
2023-10-14T09:07:05.283Z,2.65
2023-10-14T09:09:34.193Z,3.85
2023-10-14T09:12:13.548Z,4.65
2023-10-14T09:14:42.425Z,3.10
2023-10-14T09:17:11.461Z,2.95
2023-10-14T09:19:47.700Z,3.90
2023-10-14T09:22:22.442Z,2.72
2023-10-14T09:24:51.522Z,3.55
2023-10-14T09:27:21.073Z,2.10
2023-10-14T09:29:48.918Z,2.92
2023-10-14T09:32:19.225Z,2.63
2023-10-14T09:34:47.123Z,2.70
2023-10-14T09:37:19.144Z,2.33
2023-10-14T09:39:50.030Z,1.65
2023-10-14T09:42:19.149Z,2.30
2023-10-14T09:44:47.203Z,2.80
2023-10-14T09:47:16.476Z,3.05
2023-10-14T09:49:45.288Z,2.45
2023-10-14T09:52:16.057Z,3.28
2023-10-14T09:54:44.258Z,3.13
2023-10-14T09:57:12.017Z,2.78
2023-10-14T09:59:39.914Z,2.40
2023-10-14T10:02:11.153Z,2.53
2023-10-14T10:04:41.564Z,2.95
2023-10-14T10:07:42.539Z,1.95
2023-10-14T10:10:15.619Z,2.58
2023-10-14T10:12:44.470Z,2.67
2023-10-14T10:15:12.198Z,2.40
2023-10-14T10:17:40.743Z,1.73
2023-10-14T10:20:13.762Z,2.05
2023-10-14T10:22:42.663Z,2.60
2023-10-14T10:25:14.827Z,2.28
2023-10-14T10:27:43.275Z,2.70
2023-10-14T10:30:14.134Z,3.05
2023-10-14T10:32:43.641Z,2.28
2023-10-14T10:35:13.856Z,2.38
2023-10-14T10:37:54.856Z,2.72
2023-10-14T10:40:28.517Z,3.13
2023-10-14T10:42:58.056Z,1.75
2023-10-14T10:45:25.769Z,3.60
2023-10-14T10:47:55.696Z,1.60
2023-10-14T10:50:24.470Z,3.30
2023-10-14T10:52:56.414Z,2.83
2023-10-14T10:55:25.402Z,2.80
2023-10-14T10:57:59.211Z,3.05
2023-10-14T11:00:26.732Z,3.08
2023-10-14T11:02:57.594Z,2.90
2023-10-14T11:05:27.031Z,3.13
2023-10-14T11:07:56.908Z,2.85
2023-10-14T11:10:28.423Z,3.17
2023-10-14T11:12:59.975Z,2.97
2023-10-14T11:15:28.730Z,3.00
2023-10-14T11:18:00.040Z,2.58
2023-10-14T11:20:29.434Z,2.65
2023-10-14T11:22:57.717Z,2.85
2023-10-14T11:25:28.192Z,2.92
2023-10-14T11:27:56.546Z,2.25
2023-10-14T11:30:27.269Z,2.88
2023-10-14T11:32:56.342Z,3.08
2023-10-14T11:35:24.376Z,2.53
2023-10-14T11:37:58.341Z,3.28
2023-10-14T11:40:33.843Z,3.78
2023-10-14T11:43:01.726Z,2.63
2023-10-14T11:45:29.746Z,2.83
2023-10-14T11:47:57.336Z,3.47
2023-10-14T11:50:26.676Z,3.67
2023-10-14T11:52:54.520Z,3.58
2023-10-14T11:55:22.467Z,7.68
2023-10-14T11:57:50.166Z,4.88
2023-10-14T12:00:18.543Z,3.08
2023-10-14T12:02:46.883Z,3.38
2023-10-14T12:05:18.139Z,3.47
2023-10-14T12:07:46.158Z,2.95
2023-10-14T12:10:15.145Z,3.70
2023-10-14T12:12:42.881Z,2.78
2023-10-14T12:15:11.074Z,3.30
2023-10-14T12:17:39.100Z,3.17
2023-10-14T12:20:07.732Z,3.78
2023-10-14T12:22:35.400Z,2.95
2023-10-14T12:25:04.050Z,2.58
2023-10-14T12:27:34.720Z,2.95
2023-10-14T12:30:07.957Z,3.03
2023-10-14T12:32:35.606Z,3.60
2023-10-14T12:35:13.357Z,3.22
2023-10-14T12:37:42.276Z,3.60
2023-10-14T12:40:13.683Z,2.83
2023-10-14T12:42:48.023Z,3.10
2023-10-14T12:45:24.098Z,3.03
2023-10-14T12:47:57.242Z,3.10
2023-10-14T12:53:00.785Z,3.20
2023-10-14T12:55:28.726Z,3.80
2023-10-14T12:57:58.919Z,3.30
2023-10-14T13:00:26.863Z,3.38
2023-10-14T13:02:55.165Z,3.45
2023-10-14T13:05:22.776Z,3.72
2023-10-14T13:07:53.745Z,3.47
2023-10-14T13:10:22.504Z,3.78
2023-10-14T13:12:57.523Z,3.15
2023-10-14T13:15:36.247Z,3.28
2023-10-14T13:18:06.707Z,3.55
2023-10-14T13:20:36.264Z,2.83
2023-10-14T13:23:09.302Z,3.58
2023-10-14T13:25:38.033Z,3.55
2023-10-14T13:28:09.944Z,3.47
2023-10-14T13:30:39.272Z,3.45
2023-10-14T13:33:07.263Z,3.35
2023-10-14T13:35:34.983Z,3.50
2023-10-14T13:38:02.672Z,3.63
2023-10-14T13:40:41.018Z,4.20
2023-10-14T13:43:16.459Z,4.10
2023-10-14T13:45:44.403Z,3.97
2023-10-14T13:48:15.662Z,3.78
2023-10-14T13:50:44.455Z,3.42
2023-10-14T13:53:22.706Z,3.60
2023-10-14T13:55:55.546Z,3.67
2023-10-14T13:58:26.835Z,3.78
2023-10-14T14:00:57.239Z,4.05
2023-10-14T14:03:31.477Z,3.83
2023-10-14T14:05:59.723Z,4.30
2023-10-14T14:08:27.504Z,3.88
2023-10-14T14:11:02.859Z,3.67
2023-10-14T14:13:31.061Z,3.13
2023-10-14T14:16:01.105Z,3.78
2023-10-14T14:18:28.807Z,3.40
2023-10-14T14:20:56.705Z,3.10
2023-10-14T14:23:24.447Z,3.90
2023-10-14T14:25:52.261Z,4.30
2023-10-14T14:28:23.722Z,3.70
2023-10-14T14:30:51.733Z,4.82
2023-10-14T14:33:19.838Z,3.05
2023-10-14T14:35:50.246Z,3.40
2023-10-14T14:38:22.336Z,4.18
2023-10-14T14:40:53.306Z,3.33
2023-10-14T14:43:21.018Z,3.10
2023-10-14T14:45:49.421Z,4.40
2023-10-14T14:48:17.282Z,2.42
2023-10-14T14:50:50.121Z,3.85
2023-10-14T14:53:18.787Z,3.17
2023-10-14T14:55:47.040Z,3.92
2023-10-14T14:58:16.301Z,3.53
2023-10-14T15:00:44.450Z,4.07
2023-10-14T15:03:12.170Z,4.65
2023-10-14T15:05:42.631Z,5.50
2023-10-14T15:08:14.686Z,5.05
2023-10-14T15:10:46.758Z,3.60
2023-10-14T15:13:16.342Z,4.07
2023-10-14T15:15:51.878Z,7.18
2023-10-14T15:18:23.929Z,4.63
2023-10-14T15:20:52.322Z,3.47
2023-10-14T15:23:21.423Z,4.82
2023-10-14T15:25:49.291Z,3.25
2023-10-14T15:28:21.255Z,4.15
2023-10-14T15:30:49.608Z,4.77
2023-10-14T15:33:17.552Z,3.60
2023-10-14T15:35:45.353Z,4.72
2023-10-14T15:38:15.007Z,5.80
2023-10-14T15:40:48.630Z,4.65
2023-10-14T15:43:16.536Z,3.80
2023-10-14T15:45:45.624Z,3.10
2023-10-14T15:48:13.837Z,4.45
2023-10-14T15:50:43.792Z,3.45
2023-10-14T15:53:13.274Z,3.42
2023-10-14T15:55:43.163Z,4.15
2023-10-14T15:58:11.820Z,4.07
2023-10-14T16:00:41.104Z,3.55
2023-10-14T16:03:10.074Z,4.05
2023-10-14T16:05:45.637Z,3.70
2023-10-14T16:08:17.840Z,5.13
2023-10-14T16:10:49.965Z,5.80
2023-10-14T16:13:17.628Z,4.00
2023-10-14T16:15:45.850Z,3.70
2023-10-14T16:18:13.892Z,3.20
2023-10-14T16:20:42.076Z,3.63
2023-10-14T16:23:09.681Z,4.60
2023-10-14T16:25:39.610Z,2.47
2023-10-14T16:28:07.287Z,3.78
2023-10-14T16:30:38.827Z,3.33
2023-10-14T16:33:06.931Z,4.35
2023-10-14T16:35:35.728Z,2.67
2023-10-14T16:38:08.379Z,4.30
2023-10-14T16:40:37.042Z,3.95
2023-10-14T16:43:06.579Z,3.15
2023-10-14T16:45:37.696Z,3.17
2023-10-14T16:48:09.655Z,3.88
2023-10-14T16:50:39.354Z,4.35
2023-10-14T16:53:10.703Z,4.20
2023-10-14T16:55:42.629Z,3.28
2023-10-14T16:58:12.185Z,2.85
2023-10-14T17:00:40.860Z,2.88
2023-10-14T17:03:08.808Z,4.50
2023-10-14T17:05:36.689Z,3.67
2023-10-14T17:08:08.111Z,5.03
2023-10-14T17:10:39.581Z,3.70
2023-10-14T17:13:10.047Z,3.97
2023-10-14T17:15:43.052Z,4.55
2023-10-14T17:18:11.225Z,3.78
2023-10-14T17:20:42.811Z,4.20
2023-10-14T17:23:12.870Z,5.95
2023-10-14T17:25:41.265Z,4.72
2023-10-14T17:28:13.542Z,6.70
2023-10-14T17:30:44.441Z,5.53
2023-10-14T17:33:13.913Z,4.78
2023-10-14T17:35:44.295Z,5.07
2023-10-14T17:38:12.061Z,4.47
2023-10-14T17:40:40.514Z,6.05
2023-10-14T17:43:12.192Z,5.68
2023-10-14T17:45:42.428Z,4.85
2023-10-14T17:48:12.017Z,4.32
2023-10-14T17:50:43.508Z,4.53
2023-10-14T17:53:14.747Z,5.30
2023-10-14T17:55:49.708Z,4.22
2023-10-14T17:58:19.663Z,3.92
2023-10-14T18:00:47.707Z,3.95
2023-10-14T18:03:17.857Z,4.70
2023-10-14T18:05:47.061Z,3.72
2023-10-14T18:08:14.978Z,4.78
2023-10-14T18:10:43.533Z,4.97
2023-10-14T18:13:12.828Z,4.00
2023-10-14T18:15:45.670Z,3.20
2023-10-14T18:18:14.031Z,3.95
2023-10-14T18:20:42.378Z,4.15
2023-10-14T18:23:11.411Z,4.05
2023-10-14T18:25:44.869Z,3.20
2023-10-14T18:28:13.083Z,3.35
2023-10-14T18:30:41.785Z,3.38
2023-10-14T18:33:12.714Z,3.15
2023-10-14T18:35:41.556Z,4.18
2023-10-14T18:38:12.063Z,4.72
2023-10-14T18:40:40.311Z,4.53
2023-10-14T18:43:12.912Z,4.18
2023-10-14T18:45:40.679Z,4.72
2023-10-14T18:48:13.715Z,3.67
2023-10-14T18:53:10.901Z,4.05
2023-10-14T18:55:39.703Z,4.03
2023-10-14T18:58:08.647Z,3.28
2023-10-14T19:00:38.133Z,3.50
2023-10-14T19:03:06.188Z,3.80
2023-10-14T19:05:34.509Z,3.28
2023-10-14T19:08:03.480Z,3.53
2023-10-14T19:10:34.973Z,3.00
2023-10-14T19:13:02.803Z,4.18
2023-10-14T19:15:33.770Z,4.60
2023-10-14T19:18:05.392Z,4.35
2023-10-14T19:20:33.330Z,4.70
2023-10-14T19:23:12.954Z,4.60
2023-10-14T19:25:41.612Z,4.28
2023-10-14T19:28:10.449Z,3.75
2023-10-14T19:30:39.014Z,3.80
2023-10-14T19:33:07.775Z,4.47
2023-10-14T19:35:42.231Z,3.38
2023-10-14T19:38:11.832Z,4.03
2023-10-14T19:40:40.653Z,4.22
2023-10-14T19:43:12.620Z,4.30
2023-10-14T19:45:44.151Z,4.10
2023-10-14T19:48:13.646Z,3.88
2023-10-14T19:50:47.304Z,4.10
2023-10-14T19:53:15.125Z,5.32
2023-10-14T19:55:47.809Z,4.53
2023-10-14T19:58:16.763Z,4.47
2023-10-14T20:00:44.356Z,4.50
2023-10-14T20:03:13.804Z,4.65
2023-10-14T20:05:41.415Z,4.32
2023-10-14T20:08:18.399Z,4.68
2023-10-14T20:10:46.795Z,4.35
2023-10-14T20:13:15.847Z,4.95
2023-10-14T20:15:43.713Z,3.80
2023-10-14T20:18:18.079Z,4.70
2023-10-14T20:20:48.081Z,3.65
2023-10-14T20:23:16.040Z,3.85
2023-10-14T20:25:44.101Z,4.40
2023-10-14T20:28:18.810Z,4.78
2023-10-14T20:30:48.221Z,4.75
2023-10-14T20:33:19.248Z,4.72
2023-10-14T20:35:47.318Z,4.22
2023-10-14T20:38:15.366Z,6.07
2023-10-14T20:40:47.767Z,3.17
2023-10-14T20:43:15.655Z,4.85
2023-10-14T20:45:49.499Z,4.95
2023-10-14T20:48:17.626Z,4.55
2023-10-14T20:50:49.893Z,4.35
2023-10-14T20:53:18.444Z,4.17
2023-10-14T20:55:48.796Z,4.13
2023-10-14T20:58:16.825Z,4.22
2023-10-14T21:00:44.877Z,4.90
2023-10-14T21:03:22.839Z,3.85
2023-10-14T21:05:55.645Z,4.63
2023-10-14T21:08:26.365Z,3.47
2023-10-14T21:10:58.114Z,3.70
2023-10-14T21:13:27.667Z,3.28
2023-10-14T21:15:59.807Z,4.70
2023-10-14T21:18:29.047Z,4.18
2023-10-14T21:20:56.859Z,4.05
2023-10-14T21:23:24.637Z,3.38
2023-10-14T21:25:56.772Z,4.38
2023-10-14T21:28:24.677Z,4.93
2023-10-14T21:30:52.250Z,4.60
2023-10-14T21:33:21.466Z,4.88
2023-10-14T21:35:50.021Z,4.85
2023-10-14T21:38:17.646Z,5.25
2023-10-14T21:40:45.507Z,4.88
2023-10-14T21:43:13.462Z,5.00
2023-10-14T21:45:41.044Z,5.00
2023-10-14T21:48:09.974Z,3.55
2023-10-14T21:50:37.864Z,4.82
2023-10-14T21:53:06.254Z,3.42
2023-10-14T21:55:36.498Z,4.28
2023-10-14T21:58:04.322Z,5.40
2023-10-14T22:00:38.612Z,3.90
2023-10-14T22:03:08.612Z,4.63
2023-10-14T22:05:37.489Z,4.65
2023-10-14T22:08:19.275Z,5.30
2023-10-14T22:10:53.467Z,5.22
2023-10-14T22:13:23.362Z,5.47
2023-10-14T22:15:51.474Z,5.72
2023-10-14T22:18:21.806Z,7.60
2023-10-14T22:20:51.650Z,4.82
2023-10-14T22:23:22.026Z,5.35
2023-10-14T22:25:49.745Z,5.25
2023-10-14T22:28:18.056Z,4.63
2023-10-14T22:30:47.195Z,3.35
2023-10-14T22:33:15.138Z,5.38
2023-10-14T22:35:43.516Z,5.70
2023-10-14T22:38:12.316Z,5.63
2023-10-14T22:40:40.717Z,5.40
2023-10-14T22:43:09.587Z,4.25
2023-10-14T22:45:37.807Z,4.47
2023-10-14T22:48:07.809Z,5.55
2023-10-14T22:50:36.239Z,4.95
2023-10-14T22:53:04.523Z,4.35
2023-10-14T22:55:34.934Z,5.32
2023-10-14T22:58:06.435Z,4.82
2023-10-14T23:00:34.702Z,4.68
2023-10-14T23:03:11.139Z,4.97
2023-10-14T23:05:41.629Z,5.68
2023-10-14T23:08:11.621Z,5.20
2023-10-14T23:10:39.986Z,5.30
2023-10-14T23:13:07.946Z,4.05
2023-10-14T23:15:35.686Z,5.18
2023-10-14T23:18:03.936Z,5.30
2023-10-14T23:20:32.481Z,5.95
2023-10-14T23:23:00.282Z,6.50
2023-10-14T23:25:28.872Z,6.30
2023-10-14T23:27:57.550Z,5.72
2023-10-14T23:30:27.623Z,5.53
2023-10-14T23:32:57.259Z,5.00
2023-10-14T23:35:25.689Z,4.18
2023-10-14T23:37:54.322Z,5.60
2023-10-14T23:40:23.948Z,6.18
2023-10-14T23:42:53.058Z,4.82
2023-10-14T23:45:20.598Z,6.18
2023-10-14T23:47:48.883Z,5.90
2023-10-14T23:50:16.845Z,6.25
2023-10-14T23:52:45.633Z,5.72
2023-10-14T23:55:13.313Z,5.45
2023-10-14T23:57:41.768Z,5.65
